createdAt,value
2022-10-20T00:00:33.902Z,10.20
2022-10-20T00:03:56.008Z,10.10
2022-10-20T00:07:17.573Z,10.00
2022-10-20T00:10:40.811Z,10.00
2022-10-20T00:14:03.191Z,10.00
2022-10-20T00:17:24.806Z,9.90
2022-10-20T00:20:46.549Z,9.90
2022-10-20T00:24:08.091Z,9.90
2022-10-20T00:27:30.988Z,9.90
2022-10-20T00:30:54.264Z,9.80
2022-10-20T00:34:15.805Z,9.80
2022-10-20T00:37:37.344Z,9.80
2022-10-20T00:40:59.070Z,9.80
2022-10-20T00:44:39.176Z,9.80
2022-10-20T00:48:04.843Z,9.80
2022-10-20T00:51:27.498Z,9.70
2022-10-20T00:54:49.543Z,9.60
2022-10-20T00:58:11.185Z,9.60
2022-10-20T01:01:32.996Z,9.50
2022-10-20T01:04:55.909Z,9.50
2022-10-20T01:08:17.470Z,9.50
2022-10-20T01:11:44.830Z,9.50
2022-10-20T01:15:09.498Z,9.50
2022-10-20T01:18:35.791Z,9.40
2022-10-20T01:22:06.383Z,9.40
2022-10-20T01:25:34.967Z,9.40
2022-10-20T01:28:59.461Z,9.30
2022-10-20T01:32:22.703Z,9.30
2022-10-20T01:35:50.582Z,9.30
2022-10-20T01:39:15.016Z,9.30
2022-10-20T01:42:37.669Z,9.20
2022-10-20T01:46:01.343Z,9.20
2022-10-20T01:49:23.184Z,9.20
2022-10-20T01:52:44.792Z,9.20
2022-10-20T01:56:06.899Z,9.10
2022-10-20T01:59:42.452Z,9.20
2022-10-20T02:03:12.293Z,9.10
2022-10-20T02:06:38.701Z,9.20
2022-10-20T02:10:03.391Z,9.20
2022-10-20T02:13:25.878Z,9.30
2022-10-20T02:16:49.390Z,9.40
2022-10-20T02:20:12.895Z,9.40
2022-10-20T02:23:37.390Z,9.40
2022-10-20T02:27:00.522Z,9.40
2022-10-20T02:30:22.203Z,9.40
2022-10-20T02:33:44.776Z,9.40
2022-10-20T02:37:07.716Z,9.40
2022-10-20T02:40:29.665Z,9.30
2022-10-20T02:43:51.208Z,9.30
2022-10-20T02:47:12.767Z,9.30
2022-10-20T02:50:41.691Z,9.30
2022-10-20T02:54:04.629Z,9.30
2022-10-20T02:57:26.190Z,9.40
2022-10-20T03:00:48.775Z,9.40
2022-10-20T03:04:10.623Z,9.40
2022-10-20T03:07:32.163Z,9.40
2022-10-20T03:10:55.038Z,9.40
2022-10-20T03:14:16.587Z,9.40
2022-10-20T03:17:39.176Z,9.40
2022-10-20T03:21:00.878Z,9.40
2022-10-20T03:24:22.432Z,9.40
2022-10-20T03:27:45.350Z,9.30
2022-10-20T03:31:07.302Z,9.30
2022-10-20T03:34:28.847Z,9.30
2022-10-20T03:37:50.424Z,9.40
2022-10-20T03:41:12.084Z,9.40
2022-10-20T03:44:34.976Z,9.40
2022-10-20T03:47:56.549Z,9.40
2022-10-20T03:51:18.111Z,9.40
2022-10-20T03:54:39.650Z,9.50
2022-10-20T03:58:01.185Z,9.50
2022-10-20T04:01:25.401Z,9.40
2022-10-20T04:04:46.972Z,9.40
2022-10-20T04:08:08.625Z,9.40
2022-10-20T04:11:30.528Z,9.50
2022-10-20T04:14:52.058Z,9.50
2022-10-20T04:18:14.966Z,9.60
2022-10-20T04:21:36.535Z,9.60
2022-10-20T04:24:58.076Z,9.70
2022-10-20T04:28:20.320Z,9.70
2022-10-20T04:31:45.374Z,9.70
2022-10-20T04:35:11.147Z,9.80
2022-10-20T04:38:34.193Z,9.80
2022-10-20T04:41:55.750Z,9.80
2022-10-20T04:45:17.458Z,9.90
2022-10-20T04:48:41.892Z,9.90
2022-10-20T04:52:04.881Z,9.80
2022-10-20T04:55:26.446Z,9.80
2022-10-20T04:58:48.410Z,9.80
2022-10-20T05:02:09.946Z,9.80
2022-10-20T05:05:31.520Z,9.80
2022-10-20T05:08:55.083Z,9.80
2022-10-20T05:12:16.746Z,9.80
2022-10-20T05:15:38.280Z,9.90
2022-10-20T05:18:59.916Z,9.90
2022-10-20T05:22:21.787Z,9.90
2022-10-20T05:25:44.922Z,9.90
2022-10-20T05:29:07.548Z,9.90
2022-10-20T05:32:29.113Z,9.90
2022-10-20T05:35:50.656Z,10.00
2022-10-20T05:39:12.350Z,9.90
2022-10-20T05:42:35.495Z,9.90
2022-10-20T05:45:57.215Z,9.80
2022-10-20T05:49:18.780Z,9.80
2022-10-20T05:52:40.330Z,9.80
2022-10-20T05:56:05.291Z,9.80
2022-10-20T05:59:28.262Z,9.80
2022-10-20T06:02:49.800Z,9.80
2022-10-20T06:06:11.347Z,9.90
2022-10-20T06:09:32.979Z,9.90
2022-10-20T06:12:54.904Z,9.90
2022-10-20T06:16:19.226Z,10.00
2022-10-20T06:19:41.083Z,10.10
2022-10-20T06:23:02.722Z,10.10
2022-10-20T06:26:25.097Z,10.10
2022-10-20T06:29:46.692Z,10.20
2022-10-20T06:33:09.595Z,10.20
2022-10-20T06:36:31.153Z,10.30
2022-10-20T06:39:52.697Z,10.40
2022-10-20T06:43:14.244Z,10.50
2022-10-20T06:46:36.851Z,10.60
2022-10-20T06:49:59.746Z,10.70
2022-10-20T06:53:21.304Z,10.80
2022-10-20T06:56:42.936Z,10.80
2022-10-20T07:00:05.472Z,11.00
2022-10-20T07:03:27.311Z,11.10
2022-10-20T07:06:50.329Z,11.10
2022-10-20T07:10:11.868Z,11.30
2022-10-20T07:13:33.936Z,11.40
2022-10-20T07:16:55.490Z,11.50
2022-10-20T07:20:17.052Z,11.70
2022-10-20T07:23:40.173Z,11.80
2022-10-20T07:27:01.868Z,12.10
2022-10-20T07:30:23.487Z,12.40
2022-10-20T07:33:56.175Z,12.80
2022-10-20T07:37:22.758Z,13.20
2022-10-20T07:40:45.813Z,14.00
2022-10-20T07:44:07.426Z,14.80
2022-10-20T07:47:28.970Z,16.00
2022-10-20T07:50:50.543Z,17.00
2022-10-20T07:54:12.106Z,18.00
2022-10-20T07:57:35.053Z,18.90
2022-10-20T08:00:56.600Z,19.20
2022-10-20T08:04:18.152Z,19.20
2022-10-20T08:07:39.732Z,19.20
2022-10-20T08:11:01.281Z,19.60
2022-10-20T08:14:24.726Z,19.80
2022-10-20T08:17:46.325Z,19.40
2022-10-20T08:21:08.990Z,18.50
2022-10-20T08:24:30.555Z,18.10
2022-10-20T08:27:52.324Z,18.30
2022-10-20T08:31:15.260Z,18.80
2022-10-20T08:34:36.912Z,19.30
2022-10-20T08:37:58.530Z,19.40
2022-10-20T08:41:21.325Z,19.60
2022-10-20T08:44:44.270Z,19.70
2022-10-20T08:48:13.013Z,19.90
2022-10-20T08:51:35.938Z,19.90
2022-10-20T08:54:57.584Z,20.20
2022-10-20T08:58:20.232Z,20.80
2022-10-20T09:01:42.181Z,21.20
2022-10-20T09:05:06.428Z,21.10
2022-10-20T09:08:30.043Z,20.70
2022-10-20T09:11:52.296Z,20.20
2022-10-20T09:15:14.907Z,19.70
2022-10-20T09:18:36.477Z,19.00
2022-10-20T09:22:05.846Z,18.30
2022-10-20T09:25:27.399Z,18.00
2022-10-20T09:29:12.066Z,17.80
2022-10-20T09:32:48.615Z,17.60
2022-10-20T09:36:12.349Z,17.40
2022-10-20T09:39:40.615Z,17.40
2022-10-20T09:43:07.118Z,17.30
2022-10-20T09:46:32.116Z,17.40
2022-10-20T09:50:00.858Z,17.40
2022-10-20T09:53:25.349Z,17.30
2022-10-20T09:56:48.326Z,17.20
2022-10-20T10:00:36.308Z,17.30
2022-10-20T10:03:59.080Z,17.50
2022-10-20T10:07:29.325Z,17.50
2022-10-20T10:10:57.961Z,17.50
2022-10-20T10:14:22.563Z,17.50
2022-10-20T10:17:44.346Z,17.70
2022-10-20T10:21:06.635Z,17.60
2022-10-20T10:24:32.199Z,17.50
2022-10-20T10:27:57.799Z,17.50
2022-10-20T10:31:22.032Z,17.60
2022-10-20T10:34:47.951Z,17.60
2022-10-20T10:38:10.128Z,17.70
2022-10-20T10:41:46.574Z,17.90
2022-10-20T10:45:13.500Z,18.00
2022-10-20T10:48:49.984Z,18.00
2022-10-20T10:52:20.824Z,18.10
2022-10-20T10:55:49.302Z,18.10
2022-10-20T10:59:12.496Z,18.00
2022-10-20T11:02:48.913Z,18.00
2022-10-20T11:06:14.323Z,17.80
2022-10-20T11:09:39.696Z,17.50
2022-10-20T11:13:12.504Z,17.40
2022-10-20T11:16:40.162Z,17.30
2022-10-20T11:20:09.258Z,17.20
2022-10-20T11:23:39.053Z,17.30
2022-10-20T11:27:03.948Z,17.30
2022-10-20T11:30:25.578Z,17.40
2022-10-20T11:33:51.724Z,17.40
2022-10-20T11:37:17.712Z,17.60
2022-10-20T11:40:39.771Z,17.80
2022-10-20T11:44:04.815Z,18.00
2022-10-20T11:47:28.318Z,18.00
2022-10-20T11:50:52.341Z,18.00
2022-10-20T11:54:23.588Z,18.00
2022-10-20T11:57:56.354Z,18.00
2022-10-20T12:01:28.689Z,18.20
2022-10-20T12:05:05.623Z,18.30
2022-10-20T12:08:33.906Z,18.10
2022-10-20T12:11:58.529Z,17.90
2022-10-20T12:15:21.636Z,17.70
2022-10-20T12:19:04.537Z,17.50
2022-10-20T12:22:39.295Z,17.20
2022-10-20T12:26:00.995Z,17.00
2022-10-20T12:29:40.480Z,17.10
2022-10-20T12:33:17.984Z,17.30
2022-10-20T12:36:40.920Z,17.50
2022-10-20T12:40:18.944Z,17.60
2022-10-20T12:43:51.131Z,17.60
2022-10-20T12:47:18.228Z,17.50
2022-10-20T12:50:41.025Z,17.40
2022-10-20T12:54:05.480Z,17.20
2022-10-20T12:57:30.167Z,17.00
2022-10-20T13:01:05.861Z,16.90
2022-10-20T13:04:54.286Z,16.80
2022-10-20T13:08:17.244Z,16.70
2022-10-20T13:11:51.915Z,16.60
2022-10-20T13:15:17.340Z,16.50
2022-10-20T13:18:44.029Z,16.60
2022-10-20T13:22:23.891Z,16.60
2022-10-20T13:25:46.145Z,16.60
2022-10-20T13:29:15.638Z,16.50
2022-10-20T13:32:53.775Z,16.50
2022-10-20T13:36:28.075Z,16.50
2022-10-20T13:39:54.493Z,16.60
2022-10-20T13:43:23.702Z,16.50
2022-10-20T13:46:51.349Z,16.60
2022-10-20T13:50:13.957Z,16.70
2022-10-20T13:53:37.882Z,16.70
2022-10-20T13:56:59.696Z,16.80
2022-10-20T14:00:22.340Z,16.90
2022-10-20T14:03:46.455Z,17.00
2022-10-20T14:07:11.272Z,17.10
2022-10-20T14:10:36.693Z,17.10
2022-10-20T14:13:59.257Z,17.00
2022-10-20T14:17:22.317Z,17.00
2022-10-20T14:20:53.319Z,16.90
2022-10-20T14:24:16.507Z,16.80
2022-10-20T14:27:39.398Z,16.80
2022-10-20T14:31:01.951Z,16.70
2022-10-20T14:34:25.088Z,16.70
2022-10-20T14:37:51.506Z,16.60
2022-10-20T14:41:25.798Z,16.60
2022-10-20T14:44:51.169Z,16.50
2022-10-20T14:48:14.296Z,16.40
2022-10-20T14:51:37.464Z,16.40
2022-10-20T14:55:01.373Z,16.40
2022-10-20T14:58:29.751Z,16.40
2022-10-20T15:02:02.046Z,16.40
2022-10-20T15:05:31.212Z,16.30
2022-10-20T15:08:53.078Z,16.30
2022-10-20T15:12:19.632Z,16.30
2022-10-20T15:15:41.761Z,16.20
2022-10-20T15:19:23.827Z,16.10
2022-10-20T15:22:45.381Z,16.10
2022-10-20T15:26:10.132Z,16.10
2022-10-20T15:29:33.380Z,16.00
2022-10-20T15:32:55.259Z,16.00
2022-10-20T15:36:17.855Z,15.90
2022-10-20T15:39:39.493Z,15.80
2022-10-20T15:43:01.026Z,15.80
2022-10-20T15:46:24.589Z,15.80
2022-10-20T15:49:47.522Z,15.70
2022-10-20T15:53:11.214Z,15.70
2022-10-20T15:56:33.213Z,15.60
2022-10-20T15:59:55.457Z,15.60
2022-10-20T16:03:18.736Z,15.50
2022-10-20T16:06:41.172Z,15.40
2022-10-20T16:10:02.823Z,15.50
2022-10-20T16:13:25.154Z,15.50
2022-10-20T16:16:46.808Z,15.40
2022-10-20T16:20:11.572Z,15.30
2022-10-20T16:23:34.776Z,15.30
2022-10-20T16:26:56.409Z,15.20
2022-10-20T16:30:18.047Z,15.20
2022-10-20T16:33:39.789Z,15.20
2022-10-20T16:37:02.700Z,15.20
2022-10-20T16:40:24.251Z,15.20
2022-10-20T16:43:48.540Z,15.20
2022-10-20T16:47:10.735Z,15.10
2022-10-20T16:50:32.281Z,15.10
2022-10-20T16:53:57.385Z,15.10
2022-10-20T16:57:21.173Z,15.00
2022-10-20T17:00:42.778Z,15.00
2022-10-20T17:04:04.479Z,15.00
2022-10-20T17:07:26.023Z,15.00
2022-10-20T17:10:54.023Z,14.90
2022-10-20T17:14:15.613Z,14.90
2022-10-20T17:17:37.368Z,14.80
2022-10-20T17:20:59.313Z,14.80
2022-10-20T17:24:20.855Z,14.80
2022-10-20T17:27:43.771Z,14.70
2022-10-20T17:31:05.825Z,14.70
2022-10-20T17:34:27.431Z,14.80
2022-10-20T17:37:48.973Z,14.80
2022-10-20T17:41:11.759Z,14.80
2022-10-20T17:44:34.675Z,14.80
2022-10-20T17:47:56.397Z,14.80
2022-10-20T17:51:19.120Z,14.70
2022-10-20T17:54:40.778Z,14.70
2022-10-20T17:58:06.619Z,14.70
2022-10-20T18:01:32.053Z,14.70
2022-10-20T18:04:53.680Z,14.70
2022-10-20T18:08:15.411Z,14.70
2022-10-20T18:11:37.726Z,14.70
2022-10-20T18:15:00.752Z,14.60
2022-10-20T18:18:23.947Z,14.60
2022-10-20T18:21:45.976Z,14.70
2022-10-20T18:25:08.798Z,14.70
2022-10-20T18:28:31.765Z,14.70
2022-10-20T18:31:54.376Z,14.70
2022-10-20T18:35:17.392Z,14.70
2022-10-20T18:38:39.855Z,14.70
2022-10-20T18:42:01.855Z,14.70
2022-10-20T18:45:25.892Z,14.70
2022-10-20T18:48:47.966Z,14.60
2022-10-20T18:52:11.035Z,14.60
2022-10-20T18:55:32.637Z,14.60
2022-10-20T18:58:59.383Z,14.60
2022-10-20T19:02:25.663Z,14.60
2022-10-20T19:05:49.787Z,14.60
2022-10-20T19:09:14.132Z,14.50
2022-10-20T19:12:36.026Z,14.40
2022-10-20T19:15:58.414Z,14.40
2022-10-20T19:19:21.995Z,14.30
2022-10-20T19:26:27.698Z,14.20
2022-10-20T19:29:52.060Z,14.20
2022-10-20T19:33:15.426Z,14.20
2022-10-20T19:36:37.153Z,14.20
2022-10-20T19:39:59.052Z,14.20
2022-10-20T19:43:22.953Z,14.20
2022-10-20T19:46:46.084Z,14.20
2022-10-20T19:50:07.718Z,14.20
2022-10-20T19:53:29.284Z,14.20
2022-10-20T19:56:50.944Z,14.20
2022-10-20T20:00:14.338Z,14.20
2022-10-20T20:03:36.107Z,14.20
2022-10-20T20:07:01.961Z,14.20
2022-10-20T20:10:24.069Z,14.20
2022-10-20T20:13:45.760Z,14.20
2022-10-20T20:17:10.982Z,14.20
2022-10-20T20:20:32.862Z,14.10
2022-10-20T20:23:59.493Z,14.20
2022-10-20T20:27:22.035Z,14.20
2022-10-20T20:30:43.638Z,14.20
2022-10-20T20:34:06.599Z,14.10
2022-10-20T20:37:28.181Z,14.00
2022-10-20T20:40:49.736Z,14.00
2022-10-20T20:44:11.375Z,13.90
2022-10-20T20:47:33.092Z,13.90
2022-10-20T20:50:56.523Z,13.90
2022-10-20T20:54:18.098Z,13.90
2022-10-20T20:57:39.852Z,13.90
2022-10-20T21:01:02.592Z,13.90
2022-10-20T21:04:27.023Z,13.90
2022-10-20T21:07:52.690Z,13.90
2022-10-20T21:11:14.948Z,13.80
2022-10-20T21:14:36.472Z,13.80
2022-10-20T21:17:58.015Z,13.80
2022-10-20T21:21:20.450Z,13.80
2022-10-20T21:24:43.336Z,13.70
2022-10-20T21:28:04.883Z,13.70
2022-10-20T21:31:27.189Z,13.70
2022-10-20T21:34:48.724Z,13.70
2022-10-20T21:38:10.270Z,13.70
2022-10-20T21:41:34.611Z,13.50
2022-10-20T21:44:56.177Z,13.50
2022-10-20T21:48:17.740Z,13.50
2022-10-20T21:51:40.094Z,13.40
2022-10-20T21:55:01.659Z,13.30
2022-10-20T21:58:24.630Z,13.30
2022-10-20T22:01:46.475Z,13.20
2022-10-20T22:05:08.151Z,13.20
2022-10-20T22:08:29.810Z,13.20
2022-10-20T22:11:52.207Z,13.30
2022-10-20T22:15:15.126Z,13.30
2022-10-20T22:18:36.814Z,13.30
2022-10-20T22:25:24.852Z,13.30
2022-10-20T22:28:46.448Z,13.30
2022-10-20T22:32:09.369Z,13.30
2022-10-20T22:35:30.911Z,13.30
2022-10-20T22:38:52.513Z,13.30
2022-10-20T22:42:14.034Z,13.20
2022-10-20T22:45:35.578Z,13.20
2022-10-20T22:52:24.938Z,13.20
2022-10-20T22:55:46.487Z,13.20
2022-10-20T22:59:08.061Z,13.20
2022-10-20T23:02:29.618Z,13.20
2022-10-20T23:05:52.522Z,13.20
2022-10-20T23:09:14.131Z,13.10
2022-10-20T23:12:36.009Z,13.00
2022-10-20T23:15:57.818Z,13.00
2022-10-20T23:19:19.474Z,12.90
2022-10-20T23:22:42.367Z,12.90
2022-10-20T23:26:04.802Z,12.90
2022-10-20T23:29:27.471Z,12.80
2022-10-20T23:32:49.008Z,12.80
2022-10-20T23:36:11.082Z,12.70
2022-10-20T23:39:33.980Z,12.70
2022-10-20T23:42:55.516Z,12.60
2022-10-20T23:46:17.073Z,12.60
2022-10-20T23:49:38.611Z,12.50
2022-10-20T23:53:00.154Z,12.40
2022-10-20T23:56:23.071Z,12.40
2022-10-20T23:59:44.597Z,12.40
